Meteo Giornale » Osservazioni meteo Italia » Brescia-Montichiari

ore: 13:50 - Osservazioni Meteo Brescia-Montichiari
Lat. 45° 24' N Lon. 10° 18' E Alt. 104 metri s.l.m.

sereno Europe/Rome

23 °C

Sereno

Temp. 24 Ore

10 °C

23 °C

Nord

3.7 Km/h

Dew point 5 °C

Umidità 31 %

Visibilità  10 Km

Il sole sorge alle ore 07:00

Il sole tramonta alle ore 19:46

Data e Ora Cielo e Fenomeni T °C DP °C Um. % Pres. hPa Vis. km Vento km/h
Oggi h: 13:50 sereno Sereno 23 5 31 1025 10 N 3.7
Oggi h: 12:50 sereno Sereno 22 5 32 1025 10 N 3.7
Oggi h: 11:50 sereno Sereno 20 3 32 1026 10 E 13
Oggi h: 10:50 sereno Sereno 19 4 37 1026 10 E 11.1
Oggi h: 09:50 sereno Sereno 18 6 45 1025 10 N 1.8
Oggi h: 08:50 sereno Sereno 16 6 51 1025 10 N 1.8
Oggi h: 07:50 sereno Sereno 10 5 71 1024 10 NE 9.3
Oggi h: 06:50 sereno Sereno 10 4 66 1024 10 E/NE 9.3
Oggi h: 05:50 sereno Sereno 10 5 71 1023 10 NE 9.3
Oggi h: 04:50 sereno Sereno 10 5 71 1023 10 N 5.5
Oggi h: 03:50 sereno Sereno 11 5 66 1023 10 N 5.5
Oggi h: 02:50 sereno Sereno 11 5 66 1023 10 N 5.5
Oggi h: 01:50 sereno Sereno 12 6 66 1023 10 N 5.5
Oggi h: 00:50 sereno Sereno 12 6 66 1023 10 N 5.5
Ieri h: 23:50 sereno Sereno 13 7 66 1023 10 N 3.7
Ieri h: 22:50 sereno Sereno 14 6 58 1022 10 NO 7.4
Ieri h: 21:50 sereno Sereno 16 6 51 1022 10 N/NO 7.4
Ieri h: 20:50 sereno Sereno 17 6 48 1022 10 N 5.5
Ieri h: 19:50 sereno Sereno 20 5 37 1021 10 O 7.4
Ieri h: 18:50 sereno Sereno 21 4 32 1021 10 O 9.3
Ieri h: 17:50 sereno Sereno 22 3 28 1021 10 O 13
Ieri h: 16:50 sereno Sereno 22 3 28 1022 10 O 13
Ieri h: 15:50 sereno Sereno 22 4 30 1023 10 O 9.3
Ieri h: 14:50 sereno Sereno 21 4 32 1023 10 O/NO 11.1